sensor_id;sensor_type;location;lat;lon;timestamp;P1;durP1;ratioP1;P2;durP2;ratioP2
40489;SDS011;26196;52.302;10.572;2023-06-01T00:00:59;2.90;;;1.70;;
40489;SDS011;26196;52.302;10.572;2023-06-01T00:05:01;3.85;;;1.42;;
40489;SDS011;26196;52.302;10.572;2023-06-01T00:09:02;2.55;;;1.40;;
40489;SDS011;26196;52.302;10.572;2023-06-01T00:13:02;2.88;;;2.10;;
40489;SDS011;26196;52.302;10.572;2023-06-01T00:17:03;3.03;;;1.70;;
40489;SDS011;26196;52.302;10.572;2023-06-01T00:21:05;4.43;;;2.15;;
40489;SDS011;26196;52.302;10.572;2023-06-01T00:25:08;3.83;;;2.22;;
40489;SDS011;26196;52.302;10.572;2023-06-01T00:29:09;3.65;;;1.80;;
40489;SDS011;26196;52.302;10.572;2023-06-01T00:33:10;4.82;;;2.00;;
40489;SDS011;26196;52.302;10.572;2023-06-01T00:37:10;4.43;;;2.80;;
40489;SDS011;26196;52.302;10.572;2023-06-01T00:41:10;6.77;;;2.20;;
40489;SDS011;26196;52.302;10.572;2023-06-01T00:45:11;4.80;;;2.67;;
40489;SDS011;26196;52.302;10.572;2023-06-01T00:49:11;4.60;;;2.53;;
40489;SDS011;26196;52.302;10.572;2023-06-01T00:53:16;2.85;;;1.85;;
40489;SDS011;26196;52.302;10.572;2023-06-01T00:57:18;6.75;;;3.28;;
40489;SDS011;26196;52.302;10.572;2023-06-01T01:01:20;4.28;;;2.08;;
40489;SDS011;26196;52.302;10.572;2023-06-01T01:05:22;6.47;;;2.40;;
40489;SDS011;26196;52.302;10.572;2023-06-01T01:09:35;6.80;;;2.50;;
40489;SDS011;26196;52.302;10.572;2023-06-01T01:13:44;6.15;;;2.28;;
40489;SDS011;26196;52.302;10.572;2023-06-01T01:17:50;4.53;;;2.00;;
40489;SDS011;26196;52.302;10.572;2023-06-01T01:27:04;5.03;;;2.28;;
40489;SDS011;26196;52.302;10.572;2023-06-01T01:31:18;4.65;;;2.05;;
40489;SDS011;26196;52.302;10.572;2023-06-01T01:35:25;5.13;;;1.73;;
40489;SDS011;26196;52.302;10.572;2023-06-01T01:39:26;5.28;;;1.80;;
40489;SDS011;26196;52.302;10.572;2023-06-01T01:43:26;4.90;;;2.60;;
40489;SDS011;26196;52.302;10.572;2023-06-01T01:47:31;3.42;;;2.10;;
40489;SDS011;26196;52.302;10.572;2023-06-01T01:51:37;4.28;;;2.08;;
40489;SDS011;26196;52.302;10.572;2023-06-01T01:55:44;4.80;;;1.80;;
40489;SDS011;26196;52.302;10.572;2023-06-01T01:59:48;4.68;;;2.15;;
40489;SDS011;26196;52.302;10.572;2023-06-01T02:03:59;5.20;;;2.38;;
40489;SDS011;26196;52.302;10.572;2023-06-01T02:08:00;2.78;;;1.90;;
40489;SDS011;26196;52.302;10.572;2023-06-01T02:12:02;3.00;;;1.85;;
40489;SDS011;26196;52.302;10.572;2023-06-01T02:16:02;4.43;;;1.70;;
40489;SDS011;26196;52.302;10.572;2023-06-01T02:20:03;5.45;;;1.90;;
40489;SDS011;26196;52.302;10.572;2023-06-01T02:24:03;4.43;;;1.83;;
40489;SDS011;26196;52.302;10.572;2023-06-01T02:28:07;4.20;;;2.05;;
40489;SDS011;26196;52.302;10.572;2023-06-01T02:32:07;2.35;;;1.60;;
40489;SDS011;26196;52.302;10.572;2023-06-01T02:36:08;4.88;;;1.80;;
40489;SDS011;26196;52.302;10.572;2023-06-01T02:40:09;3.30;;;1.50;;
40489;SDS011;26196;52.302;10.572;2023-06-01T02:44:12;4.68;;;1.50;;
40489;SDS011;26196;52.302;10.572;2023-06-01T02:48:12;4.03;;;1.65;;
40489;SDS011;26196;52.302;10.572;2023-06-01T02:52:14;3.33;;;1.50;;
40489;SDS011;26196;52.302;10.572;2023-06-01T02:56:14;5.60;;;2.50;;
40489;SDS011;26196;52.302;10.572;2023-06-01T03:00:15;6.55;;;1.85;;
40489;SDS011;26196;52.302;10.572;2023-06-01T03:04:15;4.90;;;1.60;;
40489;SDS011;26196;52.302;10.572;2023-06-01T03:08:17;3.67;;;1.88;;
40489;SDS011;26196;52.302;10.572;2023-06-01T03:12:17;2.53;;;1.73;;
40489;SDS011;26196;52.302;10.572;2023-06-01T03:16:18;3.83;;;1.60;;
40489;SDS011;26196;52.302;10.572;2023-06-01T03:20:18;5.30;;;1.80;;
40489;SDS011;26196;52.302;10.572;2023-06-01T03:24:18;4.20;;;1.67;;
40489;SDS011;26196;52.302;10.572;2023-06-01T03:28:19;9.18;;;2.53;;
40489;SDS011;26196;52.302;10.572;2023-06-01T03:32:19;6.93;;;1.90;;
40489;SDS011;26196;52.302;10.572;2023-06-01T03:36:19;6.87;;;1.83;;
40489;SDS011;26196;52.302;10.572;2023-06-01T03:40:20;5.15;;;2.55;;
40489;SDS011;26196;52.302;10.572;2023-06-01T03:44:20;6.70;;;2.83;;
40489;SDS011;26196;52.302;10.572;2023-06-01T03:48:21;6.88;;;2.47;;
40489;SDS011;26196;52.302;10.572;2023-06-01T03:52:21;7.43;;;2.53;;
40489;SDS011;26196;52.302;10.572;2023-06-01T03:56:22;8.02;;;2.47;;
40489;SDS011;26196;52.302;10.572;2023-06-01T04:00:22;8.82;;;3.10;;
40489;SDS011;26196;52.302;10.572;2023-06-01T04:04:25;6.05;;;2.88;;
40489;SDS011;26196;52.302;10.572;2023-06-01T04:08:28;9.15;;;2.80;;
40489;SDS011;26196;52.302;10.572;2023-06-01T04:12:29;6.43;;;3.00;;
40489;SDS011;26196;52.302;10.572;2023-06-01T04:16:30;7.80;;;3.33;;
40489;SDS011;26196;52.302;10.572;2023-06-01T04:20:31;7.88;;;3.17;;
40489;SDS011;26196;52.302;10.572;2023-06-01T04:24:32;7.82;;;3.78;;
40489;SDS011;26196;52.302;10.572;2023-06-01T04:28:32;7.38;;;3.47;;
40489;SDS011;26196;52.302;10.572;2023-06-01T04:32:36;7.47;;;2.92;;
40489;SDS011;26196;52.302;10.572;2023-06-01T04:36:39;10.27;;;2.80;;
40489;SDS011;26196;52.302;10.572;2023-06-01T04:40:40;5.90;;;2.40;;
40489;SDS011;26196;52.302;10.572;2023-06-01T04:44:42;6.93;;;2.78;;
40489;SDS011;26196;52.302;10.572;2023-06-01T04:48:43;4.95;;;3.03;;
40489;SDS011;26196;52.302;10.572;2023-06-01T04:52:44;4.65;;;1.92;;
40489;SDS011;26196;52.302;10.572;2023-06-01T04:56:45;4.05;;;1.92;;
40489;SDS011;26196;52.302;10.572;2023-06-01T05:00:45;5.57;;;2.33;;
40489;SDS011;26196;52.302;10.572;2023-06-01T05:04:46;3.80;;;2.10;;
40489;SDS011;26196;52.302;10.572;2023-06-01T05:08:46;4.53;;;2.57;;
40489;SDS011;26196;52.302;10.572;2023-06-01T05:12:47;3.92;;;2.20;;
40489;SDS011;26196;52.302;10.572;2023-06-01T05:16:48;4.45;;;2.30;;
40489;SDS011;26196;52.302;10.572;2023-06-01T05:20:48;6.95;;;2.65;;
40489;SDS011;26196;52.302;10.572;2023-06-01T05:24:49;7.95;;;2.60;;
40489;SDS011;26196;52.302;10.572;2023-06-01T05:28:49;3.20;;;2.10;;
40489;SDS011;26196;52.302;10.572;2023-06-01T05:32:50;5.60;;;1.87;;
40489;SDS011;26196;52.302;10.572;2023-06-01T05:36:50;8.25;;;2.55;;
40489;SDS011;26196;52.302;10.572;2023-06-01T05:40:51;5.45;;;2.55;;
40489;SDS011;26196;52.302;10.572;2023-06-01T05:44:51;3.83;;;2.13;;
40489;SDS011;26196;52.302;10.572;2023-06-01T05:48:51;7.55;;;2.70;;
40489;SDS011;26196;52.302;10.572;2023-06-01T05:52:52;3.35;;;2.05;;
40489;SDS011;26196;52.302;10.572;2023-06-01T05:56:53;4.13;;;2.15;;
40489;SDS011;26196;52.302;10.572;2023-06-01T06:00:53;6.57;;;2.13;;
40489;SDS011;26196;52.302;10.572;2023-06-01T06:04:54;5.60;;;2.08;;
40489;SDS011;26196;52.302;10.572;2023-06-01T06:08:54;3.13;;;1.70;;
40489;SDS011;26196;52.302;10.572;2023-06-01T06:12:55;3.72;;;1.70;;
40489;SDS011;26196;52.302;10.572;2023-06-01T06:16:55;6.15;;;1.73;;
40489;SDS011;26196;52.302;10.572;2023-06-01T06:20:57;4.35;;;1.88;;
40489;SDS011;26196;52.302;10.572;2023-06-01T06:24:57;3.40;;;1.67;;
40489;SDS011;26196;52.302;10.572;2023-06-01T06:28:57;5.30;;;2.60;;
40489;SDS011;26196;52.302;10.572;2023-06-01T06:32:58;4.57;;;1.60;;
40489;SDS011;26196;52.302;10.572;2023-06-01T06:36:58;5.07;;;2.25;;
40489;SDS011;26196;52.302;10.572;2023-06-01T06:40:59;4.30;;;1.80;;
40489;SDS011;26196;52.302;10.572;2023-06-01T06:44:59;5.33;;;2.07;;
40489;SDS011;26196;52.302;10.572;2023-06-01T06:48:59;4.07;;;2.00;;
40489;SDS011;26196;52.302;10.572;2023-06-01T06:53:00;8.52;;;2.55;;
40489;SDS011;26196;52.302;10.572;2023-06-01T06:57:01;3.22;;;1.88;;
40489;SDS011;26196;52.302;10.572;2023-06-01T07:01:03;5.38;;;1.90;;
40489;SDS011;26196;52.302;10.572;2023-06-01T07:05:05;4.32;;;2.00;;
40489;SDS011;26196;52.302;10.572;2023-06-01T07:09:06;4.50;;;2.35;;
40489;SDS011;26196;52.302;10.572;2023-06-01T07:13:07;3.47;;;1.73;;
40489;SDS011;26196;52.302;10.572;2023-06-01T07:17:08;3.50;;;1.83;;
40489;SDS011;26196;52.302;10.572;2023-06-01T07:21:09;5.28;;;1.77;;
40489;SDS011;26196;52.302;10.572;2023-06-01T07:25:09;3.45;;;2.00;;
40489;SDS011;26196;52.302;10.572;2023-06-01T07:29:13;4.60;;;1.92;;
40489;SDS011;26196;52.302;10.572;2023-06-01T07:33:14;2.55;;;1.48;;
40489;SDS011;26196;52.302;10.572;2023-06-01T07:37:16;3.75;;;1.58;;
40489;SDS011;26196;52.302;10.572;2023-06-01T07:41:21;4.35;;;2.67;;
40489;SDS011;26196;52.302;10.572;2023-06-01T07:45:22;4.55;;;1.65;;
40489;SDS011;26196;52.302;10.572;2023-06-01T07:49:22;3.58;;;1.65;;
40489;SDS011;26196;52.302;10.572;2023-06-01T07:53:22;6.30;;;2.10;;
40489;SDS011;26196;52.302;10.572;2023-06-01T07:57:23;3.33;;;2.03;;
40489;SDS011;26196;52.302;10.572;2023-06-01T08:01:24;4.18;;;1.55;;
40489;SDS011;26196;52.302;10.572;2023-06-01T08:05:24;2.95;;;1.50;;
40489;SDS011;26196;52.302;10.572;2023-06-01T08:09:25;5.32;;;1.83;;
40489;SDS011;26196;52.302;10.572;2023-06-01T08:13:25;2.85;;;1.73;;
40489;SDS011;26196;52.302;10.572;2023-06-01T08:17:26;2.65;;;2.00;;
40489;SDS011;26196;52.302;10.572;2023-06-01T08:21:26;3.55;;;2.05;;
40489;SDS011;26196;52.302;10.572;2023-06-01T08:25:27;4.30;;;2.00;;
40489;SDS011;26196;52.302;10.572;2023-06-01T08:29:27;4.00;;;2.15;;
40489;SDS011;26196;52.302;10.572;2023-06-01T08:33:28;4.40;;;1.90;;
40489;SDS011;26196;52.302;10.572;2023-06-01T08:37:28;4.67;;;2.00;;
40489;SDS011;26196;52.302;10.572;2023-06-01T08:45:53;6.35;;;1.98;;
40489;SDS011;26196;52.302;10.572;2023-06-01T08:50:00;5.43;;;2.42;;
40489;SDS011;26196;52.302;10.572;2023-06-01T08:54:01;4.82;;;2.05;;
40489;SDS011;26196;52.302;10.572;2023-06-01T08:58:03;6.55;;;2.47;;
40489;SDS011;26196;52.302;10.572;2023-06-01T09:02:04;6.88;;;1.95;;
40489;SDS011;26196;52.302;10.572;2023-06-01T09:06:05;5.32;;;2.45;;
40489;SDS011;26196;52.302;10.572;2023-06-01T09:10:06;5.78;;;2.05;;
40489;SDS011;26196;52.302;10.572;2023-06-01T09:18:21;6.25;;;2.58;;
40489;SDS011;26196;52.302;10.572;2023-06-01T09:22:22;3.25;;;2.28;;
40489;SDS011;26196;52.302;10.572;2023-06-01T09:26:25;3.85;;;2.20;;
40489;SDS011;26196;52.302;10.572;2023-06-01T09:30:37;5.35;;;2.88;;
40489;SDS011;26196;52.302;10.572;2023-06-01T09:34:43;6.53;;;2.47;;
40489;SDS011;26196;52.302;10.572;2023-06-01T09:38:45;9.73;;;3.72;;
40489;SDS011;26196;52.302;10.572;2023-06-01T09:42:46;9.38;;;3.60;;
40489;SDS011;26196;52.302;10.572;2023-06-01T09:46:50;6.90;;;2.63;;
40489;SDS011;26196;52.302;10.572;2023-06-01T09:50:52;5.97;;;3.03;;
40489;SDS011;26196;52.302;10.572;2023-06-01T09:54:52;5.10;;;2.70;;
40489;SDS011;26196;52.302;10.572;2023-06-01T09:58:58;4.85;;;2.97;;
40489;SDS011;26196;52.302;10.572;2023-06-01T10:02:59;5.68;;;2.67;;
40489;SDS011;26196;52.302;10.572;2023-06-01T10:06:59;7.25;;;2.95;;
40489;SDS011;26196;52.302;10.572;2023-06-01T10:11:00;6.57;;;2.45;;
40489;SDS011;26196;52.302;10.572;2023-06-01T10:15:01;5.13;;;3.55;;
40489;SDS011;26196;52.302;10.572;2023-06-01T10:19:03;5.05;;;2.20;;
40489;SDS011;26196;52.302;10.572;2023-06-01T10:23:05;6.85;;;2.47;;
40489;SDS011;26196;52.302;10.572;2023-06-01T10:31:35;9.25;;;2.85;;
40489;SDS011;26196;52.302;10.572;2023-06-01T10:39:43;2.75;;;1.50;;
40489;SDS011;26196;52.302;10.572;2023-06-01T10:43:44;2.92;;;1.90;;
40489;SDS011;26196;52.302;10.572;2023-06-01T10:47:45;2.35;;;1.60;;
40489;SDS011;26196;52.302;10.572;2023-06-01T10:51:46;2.63;;;1.77;;
40489;SDS011;26196;52.302;10.572;2023-06-01T10:55:46;4.83;;;3.63;;
40489;SDS011;26196;52.302;10.572;2023-06-01T11:04:34;3.80;;;1.30;;
40489;SDS011;26196;52.302;10.572;2023-06-01T11:17:27;2.95;;;1.20;;
40489;SDS011;26196;52.302;10.572;2023-06-01T11:21:33;2.25;;;1.30;;
40489;SDS011;26196;52.302;10.572;2023-06-01T11:25:35;3.70;;;1.90;;
40489;SDS011;26196;52.302;10.572;2023-06-01T11:29:36;9.00;;;6.03;;
40489;SDS011;26196;52.302;10.572;2023-06-01T11:33:40;23.30;;;17.52;;
40489;SDS011;26196;52.302;10.572;2023-06-01T11:37:40;17.10;;;11.05;;
40489;SDS011;26196;52.302;10.572;2023-06-01T11:41:41;15.10;;;13.05;;
40489;SDS011;26196;52.302;10.572;2023-06-01T11:45:42;13.25;;;9.65;;
40489;SDS011;26196;52.302;10.572;2023-06-01T11:53:50;10.32;;;5.38;;
40489;SDS011;26196;52.302;10.572;2023-06-01T11:57:50;5.80;;;4.65;;
40489;SDS011;26196;52.302;10.572;2023-06-01T12:01:51;6.88;;;4.70;;
40489;SDS011;26196;52.302;10.572;2023-06-01T12:05:52;4.75;;;3.90;;
40489;SDS011;26196;52.302;10.572;2023-06-01T12:09:53;5.22;;;2.80;;
40489;SDS011;26196;52.302;10.572;2023-06-01T12:13:55;4.82;;;2.78;;
40489;SDS011;26196;52.302;10.572;2023-06-01T12:17:56;5.20;;;3.00;;
40489;SDS011;26196;52.302;10.572;2023-06-01T12:21:57;4.13;;;2.40;;
40489;SDS011;26196;52.302;10.572;2023-06-01T12:25:58;4.18;;;2.17;;
40489;SDS011;26196;52.302;10.572;2023-06-01T12:29:59;3.95;;;1.95;;
40489;SDS011;26196;52.302;10.572;2023-06-01T12:33:59;2.38;;;2.17;;
40489;SDS011;26196;52.302;10.572;2023-06-01T12:42:03;2.72;;;1.98;;
40489;SDS011;26196;52.302;10.572;2023-06-01T12:46:05;3.75;;;1.45;;
40489;SDS011;26196;52.302;10.572;2023-06-01T12:50:06;3.60;;;1.70;;
40489;SDS011;26196;52.302;10.572;2023-06-01T12:54:08;2.95;;;1.85;;
40489;SDS011;26196;52.302;10.572;2023-06-01T13:02:10;4.63;;;2.00;;
40489;SDS011;26196;52.302;10.572;2023-06-01T13:06:11;1.65;;;1.55;;
40489;SDS011;26196;52.302;10.572;2023-06-01T13:10:12;3.60;;;1.70;;
40489;SDS011;26196;52.302;10.572;2023-06-01T13:19:10;9.10;;;4.97;;
40489;SDS011;26196;52.302;10.572;2023-06-01T13:23:10;9.98;;;5.00;;
40489;SDS011;26196;52.302;10.572;2023-06-01T13:27:11;7.15;;;5.80;;
40489;SDS011;26196;52.302;10.572;2023-06-01T13:31:11;7.83;;;4.53;;
40489;SDS011;26196;52.302;10.572;2023-06-01T13:35:12;9.57;;;4.57;;
40489;SDS011;26196;52.302;10.572;2023-06-01T13:39:12;4.63;;;3.15;;
40489;SDS011;26196;52.302;10.572;2023-06-01T13:43:13;8.38;;;3.95;;
40489;SDS011;26196;52.302;10.572;2023-06-01T13:47:14;4.82;;;3.33;;
40489;SDS011;26196;52.302;10.572;2023-06-01T13:51:15;7.90;;;4.47;;
40489;SDS011;26196;52.302;10.572;2023-06-01T13:55:15;5.32;;;2.95;;
40489;SDS011;26196;52.302;10.572;2023-06-01T13:59:16;6.35;;;3.40;;
40489;SDS011;26196;52.302;10.572;2023-06-01T14:03:17;4.55;;;2.10;;
40489;SDS011;26196;52.302;10.572;2023-06-01T14:07:17;4.18;;;2.20;;
40489;SDS011;26196;52.302;10.572;2023-06-01T14:11:18;6.30;;;2.53;;
40489;SDS011;26196;52.302;10.572;2023-06-01T14:15:18;4.20;;;2.20;;
40489;SDS011;26196;52.302;10.572;2023-06-01T14:19:19;2.72;;;1.60;;
40489;SDS011;26196;52.302;10.572;2023-06-01T14:23:19;3.70;;;1.80;;
40489;SDS011;26196;52.302;10.572;2023-06-01T14:32:10;4.18;;;1.73;;
40489;SDS011;26196;52.302;10.572;2023-06-01T14:36:11;2.17;;;1.67;;
40489;SDS011;26196;52.302;10.572;2023-06-01T14:40:11;2.92;;;1.95;;
40489;SDS011;26196;52.302;10.572;2023-06-01T14:44:12;2.63;;;1.52;;
40489;SDS011;26196;52.302;10.572;2023-06-01T14:48:12;5.05;;;2.30;;
40489;SDS011;26196;52.302;10.572;2023-06-01T14:52:13;2.50;;;1.75;;
40489;SDS011;26196;52.302;10.572;2023-06-01T14:56:13;2.67;;;1.58;;
40489;SDS011;26196;52.302;10.572;2023-06-01T15:00:14;7.28;;;2.00;;
40489;SDS011;26196;52.302;10.572;2023-06-01T15:04:16;4.80;;;2.30;;
40489;SDS011;26196;52.302;10.572;2023-06-01T15:08:17;5.85;;;2.35;;
40489;SDS011;26196;52.302;10.572;2023-06-01T15:12:20;6.70;;;2.55;;
40489;SDS011;26196;52.302;10.572;2023-06-01T15:16:20;4.30;;;2.00;;
40489;SDS011;26196;52.302;10.572;2023-06-01T15:20:21;4.13;;;1.63;;
40489;SDS011;26196;52.302;10.572;2023-06-01T15:24:21;4.40;;;1.60;;
40489;SDS011;26196;52.302;10.572;2023-06-01T15:28:21;3.37;;;1.60;;
40489;SDS011;26196;52.302;10.572;2023-06-01T15:32:22;3.20;;;1.67;;
40489;SDS011;26196;52.302;10.572;2023-06-01T15:36:22;6.47;;;1.67;;
40489;SDS011;26196;52.302;10.572;2023-06-01T15:40:22;4.07;;;1.92;;
40489;SDS011;26196;52.302;10.572;2023-06-01T15:44:23;3.10;;;1.73;;
40489;SDS011;26196;52.302;10.572;2023-06-01T15:48:23;3.22;;;1.35;;
40489;SDS011;26196;52.302;10.572;2023-06-01T15:52:24;4.07;;;1.20;;
40489;SDS011;26196;52.302;10.572;2023-06-01T15:56:24;4.00;;;1.60;;
40489;SDS011;26196;52.302;10.572;2023-06-01T16:00:25;5.07;;;1.55;;
40489;SDS011;26196;52.302;10.572;2023-06-01T16:04:27;3.15;;;1.40;;
40489;SDS011;26196;52.302;10.572;2023-06-01T16:08:28;6.18;;;2.00;;
40489;SDS011;26196;52.302;10.572;2023-06-01T16:12:28;5.93;;;1.50;;
40489;SDS011;26196;52.302;10.572;2023-06-01T16:16:28;6.17;;;1.53;;
40489;SDS011;26196;52.302;10.572;2023-06-01T16:20:29;3.77;;;1.80;;
40489;SDS011;26196;52.302;10.572;2023-06-01T16:24:29;3.33;;;1.43;;
40489;SDS011;26196;52.302;10.572;2023-06-01T16:28:29;4.82;;;1.48;;
40489;SDS011;26196;52.302;10.572;2023-06-01T16:32:30;4.40;;;1.40;;
40489;SDS011;26196;52.302;10.572;2023-06-01T16:36:30;6.13;;;1.67;;
40489;SDS011;26196;52.302;10.572;2023-06-01T16:40:31;4.53;;;2.00;;
40489;SDS011;26196;52.302;10.572;2023-06-01T16:44:31;6.23;;;1.70;;
40489;SDS011;26196;52.302;10.572;2023-06-01T16:48:32;5.67;;;2.23;;
40489;SDS011;26196;52.302;10.572;2023-06-01T16:52:32;3.97;;;1.67;;
40489;SDS011;26196;52.302;10.572;2023-06-01T16:56:32;6.03;;;3.72;;
40489;SDS011;26196;52.302;10.572;2023-06-01T17:00:33;4.07;;;1.40;;
40489;SDS011;26196;52.302;10.572;2023-06-01T17:04:33;5.15;;;1.88;;
40489;SDS011;26196;52.302;10.572;2023-06-01T17:08:35;4.70;;;1.65;;
40489;SDS011;26196;52.302;10.572;2023-06-01T17:12:35;6.15;;;1.90;;
40489;SDS011;26196;52.302;10.572;2023-06-01T17:16:36;6.07;;;2.93;;
40489;SDS011;26196;52.302;10.572;2023-06-01T17:20:36;4.82;;;1.67;;
40489;SDS011;26196;52.302;10.572;2023-06-01T17:24:38;6.13;;;2.00;;
40489;SDS011;26196;52.302;10.572;2023-06-01T17:28:38;2.78;;;1.50;;
40489;SDS011;26196;52.302;10.572;2023-06-01T17:32:38;4.53;;;2.00;;
40489;SDS011;26196;52.302;10.572;2023-06-01T17:36:40;5.05;;;1.67;;
40489;SDS011;26196;52.302;10.572;2023-06-01T17:40:41;5.65;;;1.85;;
40489;SDS011;26196;52.302;10.572;2023-06-01T17:44:42;3.70;;;1.58;;
40489;SDS011;26196;52.302;10.572;2023-06-01T17:48:42;4.05;;;2.00;;
40489;SDS011;26196;52.302;10.572;2023-06-01T17:52:43;3.03;;;1.73;;
40489;SDS011;26196;52.302;10.572;2023-06-01T17:56:43;11.35;;;2.20;;
40489;SDS011;26196;52.302;10.572;2023-06-01T18:00:43;9.05;;;2.95;;
40489;SDS011;26196;52.302;10.572;2023-06-01T18:04:43;9.40;;;2.60;;
40489;SDS011;26196;52.302;10.572;2023-06-01T18:08:44;6.10;;;2.35;;
40489;SDS011;26196;52.302;10.572;2023-06-01T18:12:44;6.50;;;2.95;;
40489;SDS011;26196;52.302;10.572;2023-06-01T18:16:45;8.90;;;2.58;;
40489;SDS011;26196;52.302;10.572;2023-06-01T18:20:45;5.90;;;2.63;;
40489;SDS011;26196;52.302;10.572;2023-06-01T18:24:45;11.07;;;2.90;;
40489;SDS011;26196;52.302;10.572;2023-06-01T18:28:46;5.93;;;2.43;;
40489;SDS011;26196;52.302;10.572;2023-06-01T18:32:46;4.15;;;2.08;;
40489;SDS011;26196;52.302;10.572;2023-06-01T18:36:46;7.70;;;2.53;;
40489;SDS011;26196;52.302;10.572;2023-06-01T18:40:47;9.47;;;3.50;;
40489;SDS011;26196;52.302;10.572;2023-06-01T18:44:47;8.73;;;2.70;;
40489;SDS011;26196;52.302;10.572;2023-06-01T18:48:47;7.47;;;2.93;;
40489;SDS011;26196;52.302;10.572;2023-06-01T18:52:48;6.00;;;2.10;;
40489;SDS011;26196;52.302;10.572;2023-06-01T18:56:48;5.93;;;2.10;;
40489;SDS011;26196;52.302;10.572;2023-06-01T19:00:48;5.13;;;1.50;;
40489;SDS011;26196;52.302;10.572;2023-06-01T19:04:51;3.55;;;1.42;;
40489;SDS011;26196;52.302;10.572;2023-06-01T19:08:56;3.35;;;1.20;;
40489;SDS011;26196;52.302;10.572;2023-06-01T19:13:00;2.92;;;1.10;;
40489;SDS011;26196;52.302;10.572;2023-06-01T19:17:02;3.60;;;1.45;;
40489;SDS011;26196;52.302;10.572;2023-06-01T19:21:12;3.72;;;1.50;;
40489;SDS011;26196;52.302;10.572;2023-06-01T19:25:14;2.10;;;1.10;;
40489;SDS011;26196;52.302;10.572;2023-06-01T19:29:15;2.72;;;1.30;;
40489;SDS011;26196;52.302;10.572;2023-06-01T19:33:16;4.55;;;1.20;;
40489;SDS011;26196;52.302;10.572;2023-06-01T19:37:17;5.13;;;2.10;;
40489;SDS011;26196;52.302;10.572;2023-06-01T19:41:18;7.50;;;1.48;;
40489;SDS011;26196;52.302;10.572;2023-06-01T19:45:22;7.78;;;1.98;;
40489;SDS011;26196;52.302;10.572;2023-06-01T19:49:22;8.02;;;2.25;;
40489;SDS011;26196;52.302;10.572;2023-06-01T19:53:23;4.60;;;1.17;;
40489;SDS011;26196;52.302;10.572;2023-06-01T19:57:25;6.13;;;1.67;;
40489;SDS011;26196;52.302;10.572;2023-06-01T20:01:27;6.00;;;1.35;;
40489;SDS011;26196;52.302;10.572;2023-06-01T20:05:28;3.92;;;1.20;;
40489;SDS011;26196;52.302;10.572;2023-06-01T20:09:32;2.58;;;1.10;;
40489;SDS011;26196;52.302;10.572;2023-06-01T20:13:32;2.95;;;1.33;;
40489;SDS011;26196;52.302;10.572;2023-06-01T20:17:32;2.37;;;1.03;;
40489;SDS011;26196;52.302;10.572;2023-06-01T20:21:33;5.37;;;1.30;;
40489;SDS011;26196;52.302;10.572;2023-06-01T20:25:34;2.95;;;0.90;;
40489;SDS011;26196;52.302;10.572;2023-06-01T20:29:35;4.85;;;1.40;;
40489;SDS011;26196;52.302;10.572;2023-06-01T20:33:36;5.70;;;1.00;;
40489;SDS011;26196;52.302;10.572;2023-06-01T20:37:36;4.40;;;1.38;;
40489;SDS011;26196;52.302;10.572;2023-06-01T20:41:37;3.67;;;1.10;;
40489;SDS011;26196;52.302;10.572;2023-06-01T20:46:12;3.03;;;0.90;;
40489;SDS011;26196;52.302;10.572;2023-06-01T20:50:06;3.92;;;0.85;;
40489;SDS011;26196;52.302;10.572;2023-06-01T20:54:08;5.05;;;1.88;;
40489;SDS011;26196;52.302;10.572;2023-06-01T20:58:09;8.55;;;1.52;;
40489;SDS011;26196;52.302;10.572;2023-06-01T21:02:10;5.27;;;1.03;;
40489;SDS011;26196;52.302;10.572;2023-06-01T21:06:13;3.67;;;1.10;;
40489;SDS011;26196;52.302;10.572;2023-06-01T21:10:13;6.40;;;1.13;;
40489;SDS011;26196;52.302;10.572;2023-06-01T21:14:14;5.18;;;1.58;;
40489;SDS011;26196;52.302;10.572;2023-06-01T21:18:16;4.28;;;1.45;;
40489;SDS011;26196;52.302;10.572;2023-06-01T21:22:16;4.03;;;1.02;;
40489;SDS011;26196;52.302;10.572;2023-06-01T21:26:16;5.68;;;1.55;;
40489;SDS011;26196;52.302;10.572;2023-06-01T21:30:17;5.65;;;1.15;;
40489;SDS011;26196;52.302;10.572;2023-06-01T21:34:18;6.03;;;1.05;;
40489;SDS011;26196;52.302;10.572;2023-06-01T21:38:18;5.43;;;1.00;;
40489;SDS011;26196;52.302;10.572;2023-06-01T21:42:19;8.10;;;1.48;;
40489;SDS011;26196;52.302;10.572;2023-06-01T21:46:19;5.22;;;1.10;;
40489;SDS011;26196;52.302;10.572;2023-06-01T21:50:21;5.95;;;1.20;;
40489;SDS011;26196;52.302;10.572;2023-06-01T21:54:21;6.20;;;1.13;;
40489;SDS011;26196;52.302;10.572;2023-06-01T21:58:22;8.38;;;1.90;;
40489;SDS011;26196;52.302;10.572;2023-06-01T22:02:25;2.80;;;0.82;;
40489;SDS011;26196;52.302;10.572;2023-06-01T22:06:26;7.18;;;1.50;;
40489;SDS011;26196;52.302;10.572;2023-06-01T22:10:27;6.70;;;1.20;;
40489;SDS011;26196;52.302;10.572;2023-06-01T22:14:27;4.57;;;1.25;;
40489;SDS011;26196;52.302;10.572;2023-06-01T22:18:28;6.00;;;1.75;;
40489;SDS011;26196;52.302;10.572;2023-06-01T22:22:28;5.47;;;1.23;;
40489;SDS011;26196;52.302;10.572;2023-06-01T22:26:29;6.57;;;1.35;;
40489;SDS011;26196;52.302;10.572;2023-06-01T22:30:29;7.50;;;1.83;;
40489;SDS011;26196;52.302;10.572;2023-06-01T22:34:30;8.32;;;1.17;;
40489;SDS011;26196;52.302;10.572;2023-06-01T22:38:31;3.60;;;1.55;;
40489;SDS011;26196;52.302;10.572;2023-06-01T22:42:31;4.55;;;1.63;;
40489;SDS011;26196;52.302;10.572;2023-06-01T22:46:32;8.23;;;1.95;;
40489;SDS011;26196;52.302;10.572;2023-06-01T22:50:32;4.60;;;1.75;;
40489;SDS011;26196;52.302;10.572;2023-06-01T22:54:32;4.38;;;1.42;;
40489;SDS011;26196;52.302;10.572;2023-06-01T22:58:33;6.00;;;1.27;;
40489;SDS011;26196;52.302;10.572;2023-06-01T23:02:33;7.00;;;1.20;;
40489;SDS011;26196;52.302;10.572;2023-06-01T23:06:34;3.13;;;1.20;;
40489;SDS011;26196;52.302;10.572;2023-06-01T23:10:34;6.18;;;1.50;;
40489;SDS011;26196;52.302;10.572;2023-06-01T23:14:37;6.65;;;1.55;;
40489;SDS011;26196;52.302;10.572;2023-06-01T23:18:40;8.55;;;1.85;;
40489;SDS011;26196;52.302;10.572;2023-06-01T23:22:41;4.05;;;1.27;;
40489;SDS011;26196;52.302;10.572;2023-06-01T23:26:44;3.97;;;1.17;;
40489;SDS011;26196;52.302;10.572;2023-06-01T23:30:44;3.58;;;0.90;;
40489;SDS011;26196;52.302;10.572;2023-06-01T23:34:45;7.03;;;1.60;;
40489;SDS011;26196;52.302;10.572;2023-06-01T23:38:45;5.85;;;2.03;;
40489;SDS011;26196;52.302;10.572;2023-06-01T23:42:46;10.15;;;2.42;;
40489;SDS011;26196;52.302;10.572;2023-06-01T23:46:47;8.82;;;2.45;;
40489;SDS011;26196;52.302;10.572;2023-06-01T23:50:48;3.78;;;1.48;;
40489;SDS011;26196;52.302;10.572;2023-06-01T23:54:49;7.47;;;1.80;;
40489;SDS011;26196;52.302;10.572;2023-06-01T23:58:49;3.90;;;1.23;;
